sensor_id;sensor_type;location;lat;lon;timestamp;pressure;altitude;pressure_sealevel;temperature;humidity
66664;BME280;59683;51.428;-1.994;2023-11-21T00:01:15;100832.66;;;8.87;100.00
66664;BME280;59683;51.428;-1.994;2023-11-21T00:03:40;100823.16;;;8.85;100.00
66664;BME280;59683;51.428;-1.994;2023-11-21T00:06:06;100829.38;;;8.84;100.00
66664;BME280;59683;51.428;-1.994;2023-11-21T00:08:34;100835.53;;;8.84;100.00
66664;BME280;59683;51.428;-1.994;2023-11-21T00:11:00;100839.84;;;8.85;100.00
66664;BME280;59683;51.428;-1.994;2023-11-21T00:13:25;100827.16;;;8.90;100.00
66664;BME280;59683;51.428;-1.994;2023-11-21T00:15:51;100839.63;;;8.88;100.00
66664;BME280;59683;51.428;-1.994;2023-11-21T00:18:16;100830.88;;;8.88;100.00
66664;BME280;59683;51.428;-1.994;2023-11-21T00:20:42;100832.00;;;8.84;100.00
66664;BME280;59683;51.428;-1.994;2023-11-21T00:23:07;100836.38;;;8.85;100.00
66664;BME280;59683;51.428;-1.994;2023-11-21T00:25:34;100831.19;;;8.83;100.00
66664;BME280;59683;51.428;-1.994;2023-11-21T00:28:00;100840.16;;;8.81;100.00
66664;BME280;59683;51.428;-1.994;2023-11-21T00:30:27;100841.22;;;8.78;100.00
66664;BME280;59683;51.428;-1.994;2023-11-21T00:32:54;100851.66;;;8.80;100.00
66664;BME280;59683;51.428;-1.994;2023-11-21T00:35:19;100845.66;;;8.78;100.00
66664;BME280;59683;51.428;-1.994;2023-11-21T00:37:45;100856.22;;;8.78;100.00
66664;BME280;59683;51.428;-1.994;2023-11-21T00:40:10;100864.97;;;8.78;100.00
66664;BME280;59683;51.428;-1.994;2023-11-21T00:42:36;100860.84;;;8.74;100.00
66664;BME280;59683;51.428;-1.994;2023-11-21T00:45:01;100858.28;;;8.72;100.00
66664;BME280;59683;51.428;-1.994;2023-11-21T00:47:28;100852.41;;;8.69;100.00
66664;BME280;59683;51.428;-1.994;2023-11-21T00:49:54;100862.53;;;8.75;100.00
66664;BME280;59683;51.428;-1.994;2023-11-21T00:52:19;100874.88;;;8.74;100.00
66664;BME280;59683;51.428;-1.994;2023-11-21T00:54:46;100870.66;;;8.72;100.00
66664;BME280;59683;51.428;-1.994;2023-11-21T00:57:11;100876.69;;;8.74;100.00
66664;BME280;59683;51.428;-1.994;2023-11-21T00:59:37;100874.03;;;8.74;100.00
66664;BME280;59683;51.428;-1.994;2023-11-21T01:02:02;100876.56;;;8.75;100.00
66664;BME280;59683;51.428;-1.994;2023-11-21T01:04:30;100878.38;;;8.75;100.00
66664;BME280;59683;51.428;-1.994;2023-11-21T01:06:55;100884.41;;;8.77;100.00
66664;BME280;59683;51.428;-1.994;2023-11-21T01:09:20;100887.56;;;8.82;100.00
66664;BME280;59683;51.428;-1.994;2023-11-21T01:11:46;100886.72;;;8.82;100.00
66664;BME280;59683;51.428;-1.994;2023-11-21T01:14:11;100892.63;;;8.85;100.00
66664;BME280;59683;51.428;-1.994;2023-11-21T01:16:38;100888.41;;;8.83;100.00
66664;BME280;59683;51.428;-1.994;2023-11-21T01:19:03;100890.41;;;8.79;100.00
66664;BME280;59683;51.428;-1.994;2023-11-21T01:21:29;100894.94;;;8.77;100.00
66664;BME280;59683;51.428;-1.994;2023-11-21T01:23:56;100899.47;;;8.75;100.00
66664;BME280;59683;51.428;-1.994;2023-11-21T01:26:21;100903.06;;;8.74;100.00
66664;BME280;59683;51.428;-1.994;2023-11-21T01:28:46;100913.22;;;8.80;100.00
66664;BME280;59683;51.428;-1.994;2023-11-21T01:31:14;100914.16;;;8.79;100.00
66664;BME280;59683;51.428;-1.994;2023-11-21T01:33:40;100915.88;;;8.80;100.00
66664;BME280;59683;51.428;-1.994;2023-11-21T01:36:05;100918.59;;;8.79;100.00
66664;BME280;59683;51.428;-1.994;2023-11-21T01:38:31;100935.28;;;8.79;100.00
66664;BME280;59683;51.428;-1.994;2023-11-21T01:40:57;100942.16;;;8.82;100.00
66664;BME280;59683;51.428;-1.994;2023-11-21T01:43:22;100938.88;;;8.78;100.00
66664;BME280;59683;51.428;-1.994;2023-11-21T01:45:48;100936.41;;;8.75;100.00
66664;BME280;59683;51.428;-1.994;2023-11-21T01:48:14;100944.91;;;8.80;100.00
66664;BME280;59683;51.428;-1.994;2023-11-21T01:50:41;100954.06;;;8.87;100.00
66664;BME280;59683;51.428;-1.994;2023-11-21T01:53:07;100945.44;;;8.85;100.00
66664;BME280;59683;51.428;-1.994;2023-11-21T01:55:33;100950.91;;;8.82;100.00
66664;BME280;59683;51.428;-1.994;2023-11-21T01:57:59;100955.16;;;8.85;100.00
66664;BME280;59683;51.428;-1.994;2023-11-21T02:00:25;100962.75;;;8.89;100.00
66664;BME280;59683;51.428;-1.994;2023-11-21T02:02:53;100960.31;;;8.86;100.00
66664;BME280;59683;51.428;-1.994;2023-11-21T02:05:19;100972.53;;;8.87;100.00
66664;BME280;59683;51.428;-1.994;2023-11-21T02:07:46;100976.97;;;8.87;100.00
66664;BME280;59683;51.428;-1.994;2023-11-21T02:10:14;100985.75;;;8.87;100.00
66664;BME280;59683;51.428;-1.994;2023-11-21T02:12:42;100983.53;;;8.81;100.00
66664;BME280;59683;51.428;-1.994;2023-11-21T02:15:13;100986.38;;;8.78;100.00
66664;BME280;59683;51.428;-1.994;2023-11-21T02:17:56;100989.84;;;8.79;100.00
66664;BME280;59683;51.428;-1.994;2023-11-21T02:20:23;100996.09;;;8.78;100.00
66664;BME280;59683;51.428;-1.994;2023-11-21T02:22:51;100999.56;;;8.78;100.00
66664;BME280;59683;51.428;-1.994;2023-11-21T02:25:26;101000.06;;;8.70;100.00
66664;BME280;59683;51.428;-1.994;2023-11-21T02:27:53;101003.56;;;8.71;100.00
66664;BME280;59683;51.428;-1.994;2023-11-21T02:30:20;101011.91;;;8.78;100.00
66664;BME280;59683;51.428;-1.994;2023-11-21T02:32:49;101003.66;;;8.69;100.00
66664;BME280;59683;51.428;-1.994;2023-11-21T02:35:15;101006.38;;;8.68;100.00
66664;BME280;59683;51.428;-1.994;2023-11-21T02:37:46;100990.66;;;8.66;100.00
66664;BME280;59683;51.428;-1.994;2023-11-21T02:40:12;101000.19;;;8.69;100.00
66664;BME280;59683;51.428;-1.994;2023-11-21T02:42:38;100996.03;;;8.65;100.00
66664;BME280;59683;51.428;-1.994;2023-11-21T02:45:06;101013.84;;;8.61;100.00
66664;BME280;59683;51.428;-1.994;2023-11-21T02:47:31;101009.06;;;8.54;100.00
66664;BME280;59683;51.428;-1.994;2023-11-21T02:49:56;101019.00;;;8.50;100.00
66664;BME280;59683;51.428;-1.994;2023-11-21T02:52:22;101022.03;;;8.44;100.00
66664;BME280;59683;51.428;-1.994;2023-11-21T02:54:47;101025.41;;;8.46;100.00
66664;BME280;59683;51.428;-1.994;2023-11-21T02:57:13;101015.91;;;8.43;100.00
66664;BME280;59683;51.428;-1.994;2023-11-21T02:59:38;101029.63;;;8.48;100.00
66664;BME280;59683;51.428;-1.994;2023-11-21T03:02:04;101016.44;;;8.48;100.00
66664;BME280;59683;51.428;-1.994;2023-11-21T03:04:29;101024.28;;;8.50;100.00
66664;BME280;59683;51.428;-1.994;2023-11-21T03:06:57;101018.34;;;8.46;100.00
66664;BME280;59683;51.428;-1.994;2023-11-21T03:09:23;101035.44;;;8.54;100.00
66664;BME280;59683;51.428;-1.994;2023-11-21T03:11:48;101034.59;;;8.53;100.00
66664;BME280;59683;51.428;-1.994;2023-11-21T03:14:14;101039.03;;;8.52;100.00
66664;BME280;59683;51.428;-1.994;2023-11-21T03:16:39;101034.59;;;8.53;100.00
66664;BME280;59683;51.428;-1.994;2023-11-21T03:19:06;101047.31;;;8.61;100.00
66664;BME280;59683;51.428;-1.994;2023-11-21T03:21:33;101053.22;;;8.64;100.00
66664;BME280;59683;51.428;-1.994;2023-11-21T03:23:58;101056.72;;;8.65;100.00
66664;BME280;59683;51.428;-1.994;2023-11-21T03:26:25;101057.38;;;8.68;100.00
66664;BME280;59683;51.428;-1.994;2023-11-21T03:28:50;101064.44;;;8.68;100.00
66664;BME280;59683;51.428;-1.994;2023-11-21T03:31:18;101068.56;;;8.72;100.00
66664;BME280;59683;51.428;-1.994;2023-11-21T03:33:45;101061.50;;;8.72;100.00
66664;BME280;59683;51.428;-1.994;2023-11-21T03:36:11;101067.72;;;8.71;100.00
66664;BME280;59683;51.428;-1.994;2023-11-21T03:38:37;101079.78;;;8.75;100.00
66664;BME280;59683;51.428;-1.994;2023-11-21T03:41:03;101080.63;;;8.76;100.00
66664;BME280;59683;51.428;-1.994;2023-11-21T03:43:28;101083.06;;;8.79;100.00
66664;BME280;59683;51.428;-1.994;2023-11-21T03:45:54;101080.63;;;8.76;100.00
66664;BME280;59683;51.428;-1.994;2023-11-21T03:48:19;101090.97;;;8.79;100.00
66664;BME280;59683;51.428;-1.994;2023-11-21T03:50:45;101096.84;;;8.84;100.00
66664;BME280;59683;51.428;-1.994;2023-11-21T03:53:12;101101.03;;;8.87;100.00
66664;BME280;59683;51.428;-1.994;2023-11-21T03:55:37;101101.16;;;8.85;100.00
66664;BME280;59683;51.428;-1.994;2023-11-21T03:58:03;101095.22;;;8.82;100.00
66664;BME280;59683;51.428;-1.994;2023-11-21T04:00:28;101115.00;;;8.89;100.00
66664;BME280;59683;51.428;-1.994;2023-11-21T04:02:54;101118.59;;;8.88;100.00
66664;BME280;59683;51.428;-1.994;2023-11-21T04:05:20;101116.22;;;8.83;100.00
66664;BME280;59683;51.428;-1.994;2023-11-21T04:07:46;101119.63;;;8.85;100.00
66664;BME280;59683;51.428;-1.994;2023-11-21T04:10:12;101115.97;;;8.88;100.00
66664;BME280;59683;51.428;-1.994;2023-11-21T04:12:38;101118.69;;;8.86;100.00
66664;BME280;59683;51.428;-1.994;2023-11-21T04:15:04;101120.28;;;8.89;100.00
66664;BME280;59683;51.428;-1.994;2023-11-21T04:17:30;101134.22;;;8.91;100.00
66664;BME280;59683;51.428;-1.994;2023-11-21T04:19:56;101137.94;;;8.88;100.00
66664;BME280;59683;51.428;-1.994;2023-11-21T04:22:21;101128.22;;;8.89;100.00
66664;BME280;59683;51.428;-1.994;2023-11-21T04:24:46;101128.09;;;8.90;100.00
66664;BME280;59683;51.428;-1.994;2023-11-21T04:27:12;101128.22;;;8.89;100.00
66664;BME280;59683;51.428;-1.994;2023-11-21T04:29:38;101128.41;;;8.86;100.00
66664;BME280;59683;51.428;-1.994;2023-11-21T04:32:04;101139.81;;;8.86;100.00
66664;BME280;59683;51.428;-1.994;2023-11-21T04:34:29;101144.88;;;8.89;100.00
66664;BME280;59683;51.428;-1.994;2023-11-21T04:36:56;101145.72;;;8.90;100.00
66664;BME280;59683;51.428;-1.994;2023-11-21T04:39:22;101151.00;;;8.90;100.00
66664;BME280;59683;51.428;-1.994;2023-11-21T04:41:47;101152.63;;;8.92;100.00
66664;BME280;59683;51.428;-1.994;2023-11-21T04:44:13;101165.16;;;8.89;100.00
66664;BME280;59683;51.428;-1.994;2023-11-21T04:46:38;101154.69;;;8.87;100.00
66664;BME280;59683;51.428;-1.994;2023-11-21T04:49:03;101155.63;;;8.86;100.00
66664;BME280;59683;51.428;-1.994;2023-11-21T04:51:29;101168.53;;;8.91;100.00
66664;BME280;59683;51.428;-1.994;2023-11-21T04:53:54;101166.31;;;8.85;100.00
66664;BME280;59683;51.428;-1.994;2023-11-21T04:56:19;101177.78;;;8.84;100.00
66664;BME280;59683;51.428;-1.994;2023-11-21T04:58:45;101180.53;;;8.82;100.00
66664;BME280;59683;51.428;-1.994;2023-11-21T05:01:10;101184.31;;;8.78;100.00
66664;BME280;59683;51.428;-1.994;2023-11-21T05:03:37;101183.66;;;8.74;100.00
66664;BME280;59683;51.428;-1.994;2023-11-21T05:06:03;101194.69;;;8.67;100.00
66664;BME280;59683;51.428;-1.994;2023-11-21T05:08:30;101200.44;;;8.59;100.00
66664;BME280;59683;51.428;-1.994;2023-11-21T05:10:55;101215.34;;;8.60;100.00
66664;BME280;59683;51.428;-1.994;2023-11-21T05:13:21;101225.41;;;8.54;100.00
66664;BME280;59683;51.428;-1.994;2023-11-21T05:15:47;101226.84;;;8.45;100.00
66664;BME280;59683;51.428;-1.994;2023-11-21T05:18:12;101230.50;;;8.42;100.00
66664;BME280;59683;51.428;-1.994;2023-11-21T05:20:41;101225.44;;;8.39;100.00
66664;BME280;59683;51.428;-1.994;2023-11-21T05:23:07;101229.94;;;8.37;100.00
66664;BME280;59683;51.428;-1.994;2023-11-21T05:25:33;101234.63;;;8.32;100.00
66664;BME280;59683;51.428;-1.994;2023-11-21T05:27:59;101225.09;;;8.30;100.00
66664;BME280;59683;51.428;-1.994;2023-11-21T05:30:26;101232.50;;;8.23;100.00
66664;BME280;59683;51.428;-1.994;2023-11-21T05:32:52;101226.13;;;8.13;100.00
66664;BME280;59683;51.428;-1.994;2023-11-21T05:35:17;101235.31;;;8.06;100.00
66664;BME280;59683;51.428;-1.994;2023-11-21T05:37:43;101258.28;;;8.03;100.00
66664;BME280;59683;51.428;-1.994;2023-11-21T05:40:09;101257.88;;;7.95;100.00
66664;BME280;59683;51.428;-1.994;2023-11-21T05:42:35;101260.25;;;8.00;100.00
66664;BME280;59683;51.428;-1.994;2023-11-21T05:45:02;101252.63;;;7.95;100.00
66664;BME280;59683;51.428;-1.994;2023-11-21T05:47:43;101272.13;;;8.07;100.00
66664;BME280;59683;51.428;-1.994;2023-11-21T05:50:10;101270.22;;;7.95;100.00
66664;BME280;59683;51.428;-1.994;2023-11-21T05:52:39;101273.88;;;7.92;100.00
66664;BME280;59683;51.428;-1.994;2023-11-21T05:55:05;101264.94;;;7.95;100.00
66664;BME280;59683;51.428;-1.994;2023-11-21T05:57:33;101270.28;;;7.93;100.00
66664;BME280;59683;51.428;-1.994;2023-11-21T06:00:11;101273.97;;;7.91;100.00
66664;BME280;59683;51.428;-1.994;2023-11-21T06:02:40;101284.53;;;7.91;100.00
66664;BME280;59683;51.428;-1.994;2023-11-21T06:05:09;101275.75;;;7.90;100.00
66664;BME280;59683;51.428;-1.994;2023-11-21T06:07:35;101280.94;;;7.92;100.00
66664;BME280;59683;51.428;-1.994;2023-11-21T06:10:08;101282.78;;;7.90;100.00
66664;BME280;59683;51.428;-1.994;2023-11-21T06:12:36;101293.16;;;7.93;100.00
66664;BME280;59683;51.428;-1.994;2023-11-21T06:15:05;101288.00;;;7.91;100.00
66664;BME280;59683;51.428;-1.994;2023-11-21T06:17:32;101292.94;;;7.97;100.00
66664;BME280;59683;51.428;-1.994;2023-11-21T06:19:57;101291.88;;;8.00;100.00
66664;BME280;59683;51.428;-1.994;2023-11-21T06:22:23;101289.50;;;7.95;100.00
66664;BME280;59683;51.428;-1.994;2023-11-21T06:24:48;101301.84;;;7.95;100.00
66664;BME280;59683;51.428;-1.994;2023-11-21T06:27:14;101307.97;;;7.95;100.00
66664;BME280;59683;51.428;-1.994;2023-11-21T06:29:39;101296.75;;;7.92;100.00
66664;BME280;59683;51.428;-1.994;2023-11-21T06:32:05;101304.94;;;7.87;100.00
66664;BME280;59683;51.428;-1.994;2023-11-21T06:34:30;101298.03;;;7.85;100.00
66664;BME280;59683;51.428;-1.994;2023-11-21T06:36:56;101305.09;;;7.84;100.00
66664;BME280;59683;51.428;-1.994;2023-11-21T06:39:21;101302.97;;;7.91;100.00
66664;BME280;59683;51.428;-1.994;2023-11-21T06:41:49;101296.25;;;7.85;100.00
66664;BME280;59683;51.428;-1.994;2023-11-21T06:44:15;101308.56;;;7.85;100.00
66664;BME280;59683;51.428;-1.994;2023-11-21T06:46:40;101289.97;;;7.88;100.00
66664;BME280;59683;51.428;-1.994;2023-11-21T06:49:08;101300.41;;;7.89;100.00
66664;BME280;59683;51.428;-1.994;2023-11-21T06:51:33;101310.59;;;7.95;100.00
66664;BME280;59683;51.428;-1.994;2023-11-21T06:53:59;101314.19;;;7.94;100.00
66664;BME280;59683;51.428;-1.994;2023-11-21T06:56:24;101313.25;;;7.95;100.00
66664;BME280;59683;51.428;-1.994;2023-11-21T06:58:49;101306.75;;;8.01;100.00
66664;BME280;59683;51.428;-1.994;2023-11-21T07:01:19;101309.81;;;7.93;100.00
66664;BME280;59683;51.428;-1.994;2023-11-21T07:03:44;101314.19;;;7.94;100.00
66664;BME280;59683;51.428;-1.994;2023-11-21T07:06:10;101310.03;;;7.90;100.00
66664;BME280;59683;51.428;-1.994;2023-11-21T07:08:36;101322.25;;;7.91;100.00
66664;BME280;59683;51.428;-1.994;2023-11-21T07:11:03;101328.47;;;7.90;100.00
66664;BME280;59683;51.428;-1.994;2023-11-21T07:13:29;101335.44;;;7.91;100.00
66664;BME280;59683;51.428;-1.994;2023-11-21T07:15:54;101339.88;;;7.91;100.00
66664;BME280;59683;51.428;-1.994;2023-11-21T07:18:19;101331.13;;;7.90;100.00
66664;BME280;59683;51.428;-1.994;2023-11-21T07:20:45;101338.66;;;7.96;100.00
66664;BME280;59683;51.428;-1.994;2023-11-21T07:23:10;101334.16;;;7.98;100.00
66664;BME280;59683;51.428;-1.994;2023-11-21T07:25:35;101336.38;;;7.90;100.00
66664;BME280;59683;51.428;-1.994;2023-11-21T07:28:01;101336.03;;;7.96;100.00
66664;BME280;59683;51.428;-1.994;2023-11-21T07:32:55;101347.91;;;8.03;100.00
66664;BME280;59683;51.428;-1.994;2023-11-21T07:35:20;101346.47;;;8.14;100.00
66664;BME280;59683;51.428;-1.994;2023-11-21T07:37:46;101352.69;;;8.13;100.00
66664;BME280;59683;51.428;-1.994;2023-11-21T07:40:12;101358.97;;;8.10;100.00
66664;BME280;59683;51.428;-1.994;2023-11-21T07:42:38;101358.13;;;8.10;100.00
66664;BME280;59683;51.428;-1.994;2023-11-21T07:45:05;101368.75;;;8.08;100.00
66664;BME280;59683;51.428;-1.994;2023-11-21T07:47:32;101365.44;;;8.04;100.00
66664;BME280;59683;51.428;-1.994;2023-11-21T07:50:00;101370.25;;;8.12;100.00
66664;BME280;59683;51.428;-1.994;2023-11-21T07:52:25;101371.03;;;8.14;100.00
66664;BME280;59683;51.428;-1.994;2023-11-21T07:54:50;101379.97;;;8.12;100.00
66664;BME280;59683;51.428;-1.994;2023-11-21T07:57:16;101379.97;;;8.12;100.00
66664;BME280;59683;51.428;-1.994;2023-11-21T07:59:41;101381.34;;;8.03;100.00
66664;BME280;59683;51.428;-1.994;2023-11-21T08:02:07;101379.66;;;8.02;100.00
66664;BME280;59683;51.428;-1.994;2023-11-21T08:04:33;101391.22;;;7.99;100.00
66664;BME280;59683;51.428;-1.994;2023-11-21T08:06:59;101401.00;;;7.97;100.00
66664;BME280;59683;51.428;-1.994;2023-11-21T08:09:24;101406.09;;;8.00;100.00
66664;BME280;59683;51.428;-1.994;2023-11-21T08:11:50;101417.06;;;7.93;100.00
66664;BME280;59683;51.428;-1.994;2023-11-21T08:14:17;101415.63;;;7.87;100.00
66664;BME280;59683;51.428;-1.994;2023-11-21T08:16:42;101417.59;;;7.84;100.00
66664;BME280;59683;51.428;-1.994;2023-11-21T08:19:08;101423.44;;;7.89;100.00
66664;BME280;59683;51.428;-1.994;2023-11-21T08:21:34;101426.25;;;7.86;100.00
66664;BME280;59683;51.428;-1.994;2023-11-21T08:24:02;101419.69;;;7.77;100.00
66664;BME280;59683;51.428;-1.994;2023-11-21T08:26:29;101426.59;;;7.79;100.00
66664;BME280;59683;51.428;-1.994;2023-11-21T08:28:55;101442.41;;;7.79;100.00
66664;BME280;59683;51.428;-1.994;2023-11-21T08:31:27;101440.78;;;7.77;100.00
66664;BME280;59683;51.428;-1.994;2023-11-21T08:33:54;101450.22;;;7.81;100.00
66664;BME280;59683;51.428;-1.994;2023-11-21T08:36:22;101451.16;;;7.80;100.00
66664;BME280;59683;51.428;-1.994;2023-11-21T08:38:49;101451.06;;;7.82;100.00
66664;BME280;59683;51.428;-1.994;2023-11-21T08:41:17;101456.84;;;7.88;100.00
66664;BME280;59683;51.428;-1.994;2023-11-21T08:43:43;101453.91;;;7.94;100.00
66664;BME280;59683;51.428;-1.994;2023-11-21T08:46:09;101462.28;;;8.01;100.00
66664;BME280;59683;51.428;-1.994;2023-11-21T08:48:37;101463.06;;;8.03;100.00
66664;BME280;59683;51.428;-1.994;2023-11-21T08:51:03;101477.25;;;8.00;100.00
66664;BME280;59683;51.428;-1.994;2023-11-21T08:53:29;101479.06;;;8.00;100.00
66664;BME280;59683;51.428;-1.994;2023-11-21T08:55:56;101483.31;;;8.02;100.00
66664;BME280;59683;51.428;-1.994;2023-11-21T08:58:22;101481.94;;;8.11;100.00
66664;BME280;59683;51.428;-1.994;2023-11-21T09:00:47;101486.31;;;8.28;100.00
66664;BME280;59683;51.428;-1.994;2023-11-21T09:03:13;101477.19;;;8.34;100.00
66664;BME280;59683;51.428;-1.994;2023-11-21T09:05:39;101485.97;;;8.50;100.00
66664;BME280;59683;51.428;-1.994;2023-11-21T09:08:05;101479.59;;;8.54;100.00
66664;BME280;59683;51.428;-1.994;2023-11-21T09:10:33;101489.47;;;8.50;100.00
66664;BME280;59683;51.428;-1.994;2023-11-21T09:13:00;101489.19;;;8.55;100.00
66664;BME280;59683;51.428;-1.994;2023-11-21T09:15:27;101489.94;;;8.57;100.00
66664;BME280;59683;51.428;-1.994;2023-11-21T09:17:52;101501.66;;;8.67;100.00
66664;BME280;59683;51.428;-1.994;2023-11-21T09:20:18;101499.72;;;8.71;100.00
66664;BME280;59683;51.428;-1.994;2023-11-21T09:22:43;101499.59;;;8.72;100.00
66664;BME280;59683;51.428;-1.994;2023-11-21T09:25:10;101508.03;;;8.79;100.00
66664;BME280;59683;51.428;-1.994;2023-11-21T09:27:35;101503.34;;;8.84;100.00
66664;BME280;59683;51.428;-1.994;2023-11-21T09:30:04;101505.78;;;8.87;100.00
66664;BME280;59683;51.428;-1.994;2023-11-21T09:32:34;101500.44;;;8.89;100.00
66664;BME280;59683;51.428;-1.994;2023-11-21T09:35:02;101503.25;;;8.86;100.00
66664;BME280;59683;51.428;-1.994;2023-11-21T09:37:28;101498.66;;;8.89;100.00
66664;BME280;59683;51.428;-1.994;2023-11-21T09:39:53;101507.13;;;8.94;100.00
66664;BME280;59683;51.428;-1.994;2023-11-21T09:42:23;101520.53;;;8.91;100.00
66664;BME280;59683;51.428;-1.994;2023-11-21T09:44:56;101526.91;;;9.03;100.00
66664;BME280;59683;51.428;-1.994;2023-11-21T09:47:24;101521.84;;;8.98;100.00
66664;BME280;59683;51.428;-1.994;2023-11-21T09:49:49;101525.16;;;9.02;100.00
66664;BME280;59683;51.428;-1.994;2023-11-21T09:52:25;101524.03;;;9.06;100.00
66664;BME280;59683;51.428;-1.994;2023-11-21T09:54:52;101530.00;;;9.10;100.00
66664;BME280;59683;51.428;-1.994;2023-11-21T09:57:22;101528.47;;;9.06;100.00
66664;BME280;59683;51.428;-1.994;2023-11-21T09:59:51;101534.13;;;8.99;100.00
66664;BME280;59683;51.428;-1.994;2023-11-21T10:02:17;101540.28;;;9.00;100.00
66664;BME280;59683;51.428;-1.994;2023-11-21T10:04:44;101548.47;;;8.95;100.00
66664;BME280;59683;51.428;-1.994;2023-11-21T10:07:11;101548.81;;;8.89;100.00
66664;BME280;59683;51.428;-1.994;2023-11-21T10:09:37;101552.41;;;8.88;100.00
66664;BME280;59683;51.428;-1.994;2023-11-21T10:12:04;101554.59;;;8.96;100.00
66664;BME280;59683;51.428;-1.994;2023-11-21T10:14:35;101556.28;;;8.97;100.00
66664;BME280;59683;51.428;-1.994;2023-11-21T10:17:02;101566.94;;;8.95;100.00
66664;BME280;59683;51.428;-1.994;2023-11-21T10:19:29;101573.13;;;8.94;100.00
66664;BME280;59683;51.428;-1.994;2023-11-21T10:21:55;101561.91;;;9.07;100.00
66664;BME280;59683;51.428;-1.994;2023-11-21T10:24:22;101562.41;;;8.97;100.00
66664;BME280;59683;51.428;-1.994;2023-11-21T10:26:48;101570.50;;;8.94;100.00
66664;BME280;59683;51.428;-1.994;2023-11-21T10:29:14;101579.78;;;9.02;100.00
66664;BME280;59683;51.428;-1.994;2023-11-21T10:31:42;101573.53;;;9.03;100.00
66664;BME280;59683;51.428;-1.994;2023-11-21T10:34:18;101584.47;;;8.96;100.00
66664;BME280;59683;51.428;-1.994;2023-11-21T10:36:44;101578.63;;;8.91;100.00
66664;BME280;59683;51.428;-1.994;2023-11-21T10:39:14;101587.41;;;8.92;100.00
66664;BME280;59683;51.428;-1.994;2023-11-21T10:41:44;101604.16;;;8.91;100.00
66664;BME280;59683;51.428;-1.994;2023-11-21T10:44:10;101604.66;;;8.97;100.00
66664;BME280;59683;51.428;-1.994;2023-11-21T10:46:36;101602.59;;;9.03;100.00
66664;BME280;59683;51.428;-1.994;2023-11-21T10:49:01;101608.66;;;9.05;100.00
66664;BME280;59683;51.428;-1.994;2023-11-21T10:51:27;101607.94;;;9.17;100.00
66664;BME280;59683;51.428;-1.994;2023-11-21T10:53:53;101602.81;;;9.14;100.00
66664;BME280;59683;51.428;-1.994;2023-11-21T10:56:22;101608.56;;;9.06;100.00
66664;BME280;59683;51.428;-1.994;2023-11-21T10:58:52;101611.13;;;9.08;100.00
66664;BME280;59683;51.428;-1.994;2023-11-21T11:01:18;101610.84;;;9.12;100.00
66664;BME280;59683;51.428;-1.994;2023-11-21T11:03:46;101618.78;;;9.12;100.00
66664;BME280;59683;51.428;-1.994;2023-11-21T11:06:13;101620.66;;;9.10;100.00
66664;BME280;59683;51.428;-1.994;2023-11-21T11:08:40;101611.53;;;9.16;100.00
66664;BME280;59683;51.428;-1.994;2023-11-21T11:11:06;101612.88;;;9.23;100.00
66664;BME280;59683;51.428;-1.994;2023-11-21T11:13:32;101611.09;;;9.23;100.00
66664;BME280;59683;51.428;-1.994;2023-11-21T11:15:58;101620.47;;;9.29;100.00
66664;BME280;59683;51.428;-1.994;2023-11-21T11:18:30;101614.13;;;9.32;100.00
66664;BME280;59683;51.428;-1.994;2023-11-21T11:29:00;101626.88;;;9.39;100.00
66664;BME280;59683;51.428;-1.994;2023-11-21T11:31:40;101621.97;;;9.33;100.00
66664;BME280;59683;51.428;-1.994;2023-11-21T11:34:20;101635.19;;;9.33;100.00
66664;BME280;59683;51.428;-1.994;2023-11-21T11:36:55;101630.75;;;9.34;100.00
66664;BME280;59683;51.428;-1.994;2023-11-21T11:39:31;101632.94;;;9.41;100.00
66664;BME280;59683;51.428;-1.994;2023-11-21T11:42:02;101640.03;;;9.25;100.00
66664;BME280;59683;51.428;-1.994;2023-11-21T11:47:15;101644.69;;;9.21;100.00
66664;BME280;59683;51.428;-1.994;2023-11-21T11:55:12;101668.75;;;9.31;100.00
66664;BME280;59683;51.428;-1.994;2023-11-21T11:57:44;101672.06;;;9.35;100.00
66664;BME280;59683;51.428;-1.994;2023-11-21T12:00:18;101674.81;;;9.33;100.00
66664;BME280;59683;51.428;-1.994;2023-11-21T12:02:55;101680.94;;;9.34;100.00
66664;BME280;59683;51.428;-1.994;2023-11-21T12:05:22;101678.47;;;9.31;100.00
66664;BME280;59683;51.428;-1.994;2023-11-21T12:07:52;101675.22;;;9.41;100.00
66664;BME280;59683;51.428;-1.994;2023-11-21T12:10:21;101676.19;;;9.55;100.00
66664;BME280;59683;51.428;-1.994;2023-11-21T12:12:51;101680.28;;;9.60;100.00
66664;BME280;59683;51.428;-1.994;2023-11-21T12:15:18;101673.03;;;9.64;100.00
66664;BME280;59683;51.428;-1.994;2023-11-21T12:17:44;101684.34;;;9.66;100.00
66664;BME280;59683;51.428;-1.994;2023-11-21T12:20:11;101673.72;;;9.67;100.00
66664;BME280;59683;51.428;-1.994;2023-11-21T12:22:47;101674.94;;;9.76;100.00
66664;BME280;59683;51.428;-1.994;2023-11-21T12:27:51;101674.94;;;9.76;100.00
66664;BME280;59683;51.428;-1.994;2023-11-21T12:30:19;101678.25;;;9.80;100.00
66664;BME280;59683;51.428;-1.994;2023-11-21T12:32:47;101681.69;;;9.82;100.00
66664;BME280;59683;51.428;-1.994;2023-11-21T12:35:12;101688.38;;;9.87;100.00
66664;BME280;59683;51.428;-1.994;2023-11-21T12:37:39;101692.25;;;9.82;100.00
66664;BME280;59683;51.428;-1.994;2023-11-21T12:40:06;101696.66;;;9.81;100.00
66664;BME280;59683;51.428;-1.994;2023-11-21T12:42:33;101695.75;;;9.82;100.00
66664;BME280;59683;51.428;-1.994;2023-11-21T12:45:29;101701.78;;;9.84;100.00
66664;BME280;59683;51.428;-1.994;2023-11-21T12:48:01;101700.44;;;9.77;100.00
66664;BME280;59683;51.428;-1.994;2023-11-21T12:50:30;101704.97;;;9.75;100.00
66664;BME280;59683;51.428;-1.994;2023-11-21T12:53:00;101713.25;;;9.69;100.00
66664;BME280;59683;51.428;-1.994;2023-11-21T12:55:30;101714.56;;;9.62;100.00
66664;BME280;59683;51.428;-1.994;2023-11-21T12:57:56;101722.84;;;9.56;100.00
66664;BME280;59683;51.428;-1.994;2023-11-21T13:00:33;101723.69;;;9.56;100.00